Latest Coastal Weather Observations for Cairns

IDQ60701

Issued at 1:02 pm EST Sunday 12 July 2020 (issued every 10 minutes, with the page automatically refreshed every 10 minutes)

About coastal observations | Map of coastal stations | Coastal observations for QLD | Marine services | Other Formats
Station Details ID: 031011 Name: CAIRNS AERO Lat: -16.87 Lon: 145.75 Height: 2.22 m
Data from the previous 72 hours. | See also: Recent months at Cairns
Date/Time
EST
Wind Sea
Height
m
Swell Vis
km
Cloud Weather Temp
°C
Press
hPa
Rain since
9am
mm
Dir  Spd
kts
Gust
kts
Height
m
Period
s
Dir
12/01:00pm SE 8 11 - - - - 10 Partly cloudy - 24.7 1013.5 0.2
12/12:30pm E 5 12 - - - - 10 Partly cloudy - 24.8 1013.9 0.0
12/12:27pm E 3 4 - - - - 10 Partly cloudy - 24.8 1014.0 0.0
12/12:09pm ESE 8 12 - - - - 5 Partly cloudy - 23.4 1014.3 0.0
12/12:07pm ESE 7 12 - - - - 6 Partly cloudy - 23.5 1014.3 0.0
12/12:00pm SE 5 9 - - - - 10 Cloudy - 24.9 1014.4 0.0
12/11:35am SE 5 8 - - - - 10 Partly cloudy - 24.2 1014.5 0.0
12/11:30am SSE 6 8 - - - - 10 Partly cloudy - 24.1 1014.6 0.0
12/11:19am SE 5 8 - - - - 10 Partly cloudy - 24.5 1014.6 0.0
12/11:04am SE 6 8 - - - - 10 Partly cloudy - 23.2 1014.8 0.0
12/11:00am SSE 7 11 - - - - 10 Partly cloudy - 22.9 1014.8 0.0
12/10:30am S 8 12 - - - - 10 Partly cloudy - 23.9 1015.0 0.0
12/10:00am S 8 12 - - - - 10 Partly cloudy - 23.8 1015.3 0.0
12/09:30am S 8 13 - - - - 10 Partly cloudy - 22.5 1015.4 0.0
12/09:00am SSE 7 10 - - - - 10 Cloudy - 22.2 1015.3 0.0
12/08:30am S 10 14 - - - - 10 Partly cloudy - 22.0 1015.2 0.0
12/08:00am SE 7 10 - - - - 10 Partly cloudy - 22.4 1015.1 0.0
12/07:30am S 8 12 - - - - 10 Partly cloudy - 22.5 1014.6 0.0
12/07:00am S 9 13 - - - - 10 Partly cloudy - 21.7 1014.4 0.0
12/06:30am S 9 14 - - - - 10 Partly cloudy - 21.5 1014.1 0.0
12/06:00am SSE 6 10 - - - - 10 Cloudy - 21.9 1013.9 0.0
12/05:30am S 7 10 - - - - 10 Partly cloudy - 21.7 1013.8 0.0
12/05:00am SSE 7 11 - - - - 10 Partly cloudy - 21.3 1013.6 0.0
12/04:30am S 9 13 - - - - 10 Partly cloudy - 21.5 1013.3 0.0
12/04:00am S 8 13 - - - - 10 Partly cloudy - 21.2 1013.2 0.0
12/03:30am S 8 11 - - - - 10 Partly cloudy - 21.5 1013.4 0.0
12/03:00am S 10 14 - - - - 10 Cloudy - 21.6 1013.4 0.0
12/02:30am S 7 13 - - - - 10 Partly cloudy - 21.5 1013.4 0.0
12/02:00am S 6 10 - - - - 10 Partly cloudy - 21.4 1013.9 0.0
12/01:30am S 4 8 - - - - 10 Partly cloudy - 21.4 1014.2 0.0
12/01:18am S 6 10 - - - - 10 Partly cloudy - 21.2 1014.0 0.0
12/01:00am SSE 8 11 - - - - 6 Partly cloudy - 21.0 1014.2 0.0
12/12:30am S 7 12 - - - - 10 Partly cloudy - 21.6 1014.3 0.0
12/12:00am S 8 13 - - - - 10 Cloudy - 21.6 1014.4 0.0
 
Date/Time
EST
Wind Sea
Height
m
Swell Vis
km
Cloud Weather Temp
°C
Press
hPa
Rain since
9am
mm
Dir  Spd
kts
Gust
kts
Height
m
Period
s
Dir
11/11:30pm SSE 6 8 - - - - 10 Cloudy - 21.6 1014.8 0.0
11/11:00pm S 7 12 - - - - 10 Partly cloudy - 21.9 1014.9 0.0
11/10:30pm S 7 12 - - - - 10 Partly cloudy - 21.7 1015.0 0.0
11/10:00pm S 7 10 - - - - 10 Partly cloudy - 21.7 1015.2 0.0
11/09:30pm SSE 7 11 - - - - 10 Partly cloudy - 21.8 1015.4 0.0
11/09:00pm SSE 5 8 - - - - 10 Cloudy - 21.8 1015.4 0.0
11/08:30pm S 5 8 - - - - 10 Partly cloudy - 22.1 1015.3 0.0
11/08:00pm S 4 8 - - - - 10 Partly cloudy - 22.0 1015.1 0.0
11/07:30pm S 5 8 - - - - 10 Partly cloudy - 22.4 1014.9 0.0
11/07:00pm SSE 5 6 - - - - 10 Partly cloudy - 22.4 1014.5 0.0
11/06:30pm SSE 6 11 - - - - 10 Partly cloudy - 22.7 1014.3 0.0
11/06:00pm SE 6 9 - - - - 10 Partly cloudy - 23.0 1014.0 0.0
11/05:30pm ESE 9 11 - - - - 10 - - 23.8 1013.9 0.0
11/05:00pm SE 10 13 - - - - 10 Partly cloudy - 24.4 1013.8 0.0
11/04:30pm SE 9 12 - - - - 10 Partly cloudy - 24.7 1013.9 0.0
11/04:00pm SE 10 14 - - - - 10 Partly cloudy - 25.7 1013.6 0.0
11/03:30pm SE 11 14 - - - - 10 Partly cloudy - 26.6 1013.5 0.0
11/03:00pm SE 12 17 - - - - 10 Cloudy - 26.6 1013.7 0.0
11/02:30pm ESE 11 14 - - - - 10 - - 27.2 1013.6 0.0
11/02:00pm ESE 12 15 - - - - 10 - - 27.2 1013.8 0.0
11/01:30pm ESE 13 15 - - - - 10 Partly cloudy - 26.7 1014.1 0.0
11/01:00pm SE 14 18 - - - - 10 Partly cloudy - 27.0 1014.4 0.0
11/12:30pm SE 14 19 - - - - 10 - - 26.7 1014.6 0.0
11/12:00pm SE 13 19 - - - - 10 Mostly clear - 26.2 1015.2 0.0
11/11:30am SE 12 15 - - - - 10 Partly cloudy - 26.0 1015.6 0.0
11/11:00am SE 11 14 - - - - 10 Partly cloudy - 27.2 1016.0 0.0
11/10:30am SSE 9 13 - - - - 10 - - 25.5 1016.0 0.0
11/10:00am SSE 11 15 - - - - 10 - - 24.7 1016.2 0.0
11/09:30am SSE 11 14 - - - - 10 - - 23.8 1016.1 0.0
11/09:00am SSE 12 16 - - - - 10 Mostly cloudy - 22.9 1016.0 0.4
11/08:30am SSE 11 19 - - - - 10 - - 22.0 1015.7 0.4
11/08:00am S 9 16 - - - - 10 - - 21.6 1015.7 0.4
11/07:30am S 10 14 - - - - 10 - - 21.3 1015.6 0.4
11/07:00am S 8 12 - - - - 10 Partly cloudy - 21.0 1015.6 0.4
11/06:30am S 9 13 - - - - 10 - - 20.8 1015.7 0.4
11/06:00am S 7 13 - - - - 10 - - 20.6 1015.5 0.4
11/05:30am S 9 14 - - - - 10 - - 20.8 1015.3 0.4
11/05:00am S 10 14 - - - - 10 - - 20.8 1015.4 0.4
11/04:30am S 9 14 - - - - 10 Partly cloudy - 20.8 1015.5 0.4
11/04:06am S 7 12 - - - - 10 Partly cloudy - 20.7 1015.7 0.4
11/04:00am SSE 6 10 - - - - 10 Partly cloudy - 20.5 1015.8 0.4
11/03:55am SSE 7 11 - - - - 6 Partly cloudy - 20.5 1015.8 0.4
11/03:30am S 7 10 - - - - 10 Partly cloudy - 20.8 1016.0 0.4
11/03:00am S 7 11 - - - - 10 Cloudy - 21.0 1016.0 0.4
11/02:30am SSE 7 11 - - - - 10 Partly cloudy - 20.8 1016.4 0.4
11/02:00am SSE 5 9 - - - - 10 Partly cloudy - 20.6 1016.6 0.4
11/01:42am SE 5 7 - - - - 10 Partly cloudy - 20.5 1016.8 0.4
11/01:39am SE 5 7 - - - - 10 Partly cloudy - 20.4 1016.9 0.4
11/01:30am SE 5 7 - - - - 4 Partly cloudy - 20.4 1017.0 0.4
11/01:28am SE 5 7 - - - - 4 Partly cloudy - 20.3 1017.1 0.4
11/01:00am SSE 7 11 - - - - 5 Partly cloudy - 20.6 1017.3 0.2
11/12:55am SSE 7 12 - - - - 6 Partly cloudy - 20.8 1017.3 0.2
11/12:30am S 9 16 - - - - 10 Partly cloudy - 21.0 1017.2 0.2
11/12:00am S 8 12 - - - - 10 Cloudy - 20.8 1017.6 0.2
 
Date/Time
EST
Wind Sea
Height
m
Swell Vis
km
Cloud Weather Temp
°C
Press
hPa
Rain since
9am
mm
Dir  Spd
kts
Gust
kts
Height
m
Period
s
Dir
10/11:30pm S 7 13 - - - - 10 Partly cloudy - 21.1 1017.8 0.2
10/11:00pm SSE 8 14 - - - - 10 Partly cloudy - 21.3 1018.0 0.2
10/10:30pm S 8 12 - - - - 10 Partly cloudy - 21.4 1018.1 0.2
10/10:00pm SSE 6 12 - - - - 10 Partly cloudy - 21.2 1018.3 0.2
10/09:30pm S 7 11 - - - - 10 Partly cloudy - 21.3 1018.2 0.2
10/09:12pm SSE 5 8 - - - - 10 Partly cloudy - 21.3 1018.3 0.2
10/09:00pm SE 7 10 - - - - 5 Cloudy Showers 21.2 1018.4 0.2
10/08:53pm SSE 8 12 - - - - 6 Partly cloudy - 21.3 1018.5 0.0
10/08:30pm SSE 6 10 - - - - 10 Partly cloudy - 21.9 1018.1 0.0
10/08:00pm SSE 6 9 - - - - 10 Partly cloudy - 22.3 1017.9 0.0
10/07:30pm SE 6 8 - - - - 10 Cloudy - 22.3 1017.7 0.0
10/07:00pm SE 12 19 - - - - 10 Partly cloudy - 22.1 1017.3 0.0
10/06:30pm SSE 7 11 - - - - 10 - - 22.4 1016.8 0.0
10/06:00pm SE 10 14 - - - - 10 - - 22.9 1016.4 0.0
10/05:30pm SE 11 15 - - - - 10 - - 23.5 1016.3 0.0
10/05:00pm SE 13 18 - - - - 10 - - 24.5 1016.1 0.0
10/04:30pm SE 14 18 - - - - 10 - - 24.8 1016.0 0.0
10/04:00pm SE 15 19 - - - - 10 - - 25.4 1015.7 0.0
10/03:30pm SE 15 19 - - - - 10 - - 25.6 1015.8 0.0
10/03:00pm SE 15 19 - - - - 10 - - 25.9 1015.9 0.0
10/02:30pm SE 16 21 - - - - 10 Partly cloudy - 26.1 1016.1 0.0
10/02:00pm SE 17 23 - - - - 10 Partly cloudy - 25.9 1016.3 0.0
10/01:30pm SE 19 25 - - - - 10 Cloudy - 26.7 1016.4 0.0
10/01:00pm SE 18 22 - - - - 10 Partly cloudy - 26.5 1016.8 0.0
10/12:30pm SE 17 22 - - - - 10 Partly cloudy - 26.6 1017.2 0.0
10/12:00pm SE 18 23 - - - - 10 Cloudy - 25.4 1017.9 0.0
10/11:30am SE 19 24 - - - - 10 Partly cloudy - 25.2 1018.2 0.0
10/11:00am SE 15 19 - - - - 10 Partly cloudy - 25.4 1018.6 0.0
10/10:30am SE 15 20 - - - - 10 Partly cloudy - 24.2 1018.9 0.0
10/10:00am SE 13 20 - - - - 10 Partly cloudy - 24.5 1019.0 0.0
10/09:30am SSE 8 12 - - - - 10 Partly cloudy - 22.9 1019.1 0.0
10/09:00am SSE 8 13 - - - - 10 Cloudy Rain 22.6 1018.8 4.4
10/08:41am SSE 9 16 - - - - 10 Partly cloudy - 21.8 1018.6 4.4
10/08:31am SSE 9 13 - - - - 8 Partly cloudy - 21.5 1018.4 4.4
10/08:30am SSE 9 13 - - - - 8 Partly cloudy - 21.5 1018.4 4.4
10/08:00am SSE 9 15 - - - - 10 Partly cloudy - 21.4 1018.2 4.0
10/07:30am S 9 13 - - - - 10 Partly cloudy - 21.3 1017.8 4.0
10/07:08am SSE 7 13 - - - - 10 Partly cloudy - 21.1 1017.5 4.0
10/07:00am SSE 9 13 - - - - 7 Partly cloudy - 21.0 1017.4 3.8
10/06:56am SSE 9 13 - - - - 6 Partly cloudy - 21.0 1017.4 3.8
10/06:30am SSE 8 11 - - - - 10 Partly cloudy - 21.4 1017.1 3.4
10/06:25am SSE 7 11 - - - - 10 Partly cloudy - 21.5 1017.2 3.4
10/06:14am SSE 8 11 - - - - 6 Partly cloudy - 21.4 1017.1 3.4
10/06:00am SSE 8 12 - - - - 10 Cloudy Showers 21.9 1016.9 3.0
10/05:30am S 9 14 - - - - 10 Partly cloudy - 22.1 1016.5 3.0
10/05:00am SSE 9 12 - - - - 10 Partly cloudy - 21.8 1016.3 3.0
10/04:30am SSE 8 10 - - - - 10 Partly cloudy - 22.0 1016.1 3.0
10/04:00am S 8 12 - - - - 10 Partly cloudy - 21.9 1016.2 3.0
10/03:30am SSE 7 10 - - - - 10 Partly cloudy - 21.6 1016.3 3.0
10/03:00am SSE 9 12 - - - - 10 Cloudy - 21.7 1016.3 3.0
10/02:30am SSE 9 12 - - - - 10 Partly cloudy - 21.5 1016.7 3.0
10/02:00am SSE 8 12 - - - - 10 Partly cloudy - 21.1 1016.9 3.0
10/01:56am SSE 7 11 - - - - 10 Partly cloudy - 21.0 1016.9 3.0
10/01:37am SSE 8 13 - - - - 10 Partly cloudy - 21.0 1017.3 3.0
10/01:30am SSE 9 13 - - - - 9 Partly cloudy - 20.9 1017.3 3.0
10/01:07am S 7 13 - - - - 6 Partly cloudy - 21.0 1017.4 1.6
10/01:00am S 7 13 - - - - 10 Partly cloudy - 21.0 1017.4 1.4
10/12:59am S 7 13 - - - - 10 Partly cloudy - 21.0 1017.4 1.4
10/12:52am S 6 11 - - - - 10 Partly cloudy - 21.0 1017.4 1.2
10/12:33am S 7 14 - - - - 6 Partly cloudy - 20.9 1017.5 1.0
10/12:30am S 8 14 - - - - 9 Partly cloudy - 20.8 1017.5 0.8
10/12:10am SSE 9 13 - - - - 6 Partly cloudy - 21.2 1017.6 0.4
10/12:00am S 9 14 - - - - 10 Cloudy - 21.7 1017.3 0.2
 
Date/Time
EST
Wind Sea
Height
m
Swell Vis
km
Cloud Weather Temp
°C
Press
hPa
Rain since
9am
mm
Dir  Spd
kts
Gust
kts
Height
m
Period
s
Dir
09/11:30pm S 10 15 - - - - 10 Partly cloudy - 21.7 1017.4 0.2
09/11:00pm SSE 9 13 - - - - 10 Partly cloudy - 21.4 1017.8 0.2
09/10:30pm SSE 9 13 - - - - 10 Partly cloudy - 21.3 1017.9 0.2
09/10:00pm SSE 8 11 - - - - 10 Partly cloudy - 22.2 1017.9 0.2
09/09:30pm SSE 9 13 - - - - 10 Partly cloudy - 22.0 1017.7 0.2
09/09:00pm S 8 12 - - - - 10 Cloudy - 22.4 1017.7 0.2
09/08:30pm SSE 8 11 - - - - 10 Partly cloudy - 22.3 1017.7 0.2
09/08:00pm SSE 7 10 - - - - 10 Partly cloudy - 22.5 1017.5 0.2
09/07:30pm S 8 13 - - - - 10 Partly cloudy - 22.3 1017.3 0.2
09/07:00pm SSE 10 13 - - - - 10 - - 22.6 1016.9 0.2
09/06:30pm SSE 9 12 - - - - 10 Partly cloudy - 23.1 1016.8 0.2
09/06:00pm SE 12 15 - - - - 10 Mostly clear - 23.6 1016.5 0.2
09/05:30pm SE 12 16 - - - - 10 - - 23.9 1016.3 0.2
09/05:00pm SE 17 22 - - - - 10 - - 24.9 1016.1 0.2
09/04:30pm SE 18 23 - - - - 10 - - 25.3 1015.8 0.2
09/04:00pm SE 16 21 - - - - 10 Partly cloudy - 26.0 1015.7 0.2
09/03:30pm ESE 15 21 - - - - 10 Partly cloudy - 26.0 1015.6 0.2
09/03:00pm SE 17 22 - - - - 10 Mostly clear - 26.6 1015.4 0.2
09/02:30pm SE 16 21 - - - - 10 Partly cloudy - 26.9 1015.4 0.2
09/02:00pm SE 16 20 - - - - 10 Partly cloudy - 26.8 1015.7 0.2
09/01:30pm SE 15 20 - - - - 10 Partly cloudy - 26.3 1015.9 0.2

Other formats

Comma delimited format used in spreadsheet applications
http://www.bom.gov.au/fwo/IDQ60701/IDQ60701.94287.axf

JavaScript Object Notation format (JSON) in row-major order
http://www.bom.gov.au/fwo/IDQ60701/IDQ60701.94287.json

Data quality

Most of these data are generated automatically and are frequently updated. Quality checks on data are not normally performed. It is possible for incorrect values to appear. Refer to information at About Latest Weather Observations and please check the disclaimer before using these data.